createdAt,value
2022-11-25T00:01:26.147Z,100864.75
2022-11-25T00:03:56.460Z,100872.56
2022-11-25T00:06:33.445Z,100864.66
2022-11-25T00:09:06.612Z,100867.22
2022-11-25T00:11:39.236Z,100861.88
2022-11-25T00:14:07.950Z,100863.63
2022-11-25T00:16:34.791Z,100856.53
2022-11-25T00:19:01.683Z,100850.38
2022-11-25T00:21:32.702Z,100852.97
2022-11-25T00:24:03.372Z,100855.59
2022-11-25T00:26:32.688Z,100845.03
2022-11-25T00:29:04.158Z,100851.16
2022-11-25T00:31:34.761Z,100839.69
2022-11-25T00:34:01.827Z,100837.00
2022-11-25T00:36:36.301Z,100834.41
2022-11-25T00:39:11.271Z,100837.88
2022-11-25T00:41:57.128Z,100835.19
2022-11-25T00:44:36.983Z,100834.25
2022-11-25T00:47:16.528Z,100827.25
2022-11-25T00:49:49.472Z,100830.72
2022-11-25T00:52:22.669Z,100827.25
2022-11-25T00:54:50.705Z,100822.84
2022-11-25T00:57:20.551Z,100826.38
2022-11-25T00:59:47.933Z,100820.25
2022-11-25T01:02:18.782Z,100817.69
2022-11-25T01:04:46.404Z,100815.06
2022-11-25T01:07:13.524Z,100803.69
2022-11-25T01:09:40.386Z,100809.88
2022-11-25T01:12:07.226Z,100823.09
2022-11-25T01:14:34.892Z,100823.16
2022-11-25T01:17:02.003Z,100821.44
2022-11-25T01:19:28.900Z,100816.22
2022-11-25T01:21:55.741Z,100818.91
2022-11-25T01:24:24.034Z,100820.69
2022-11-25T01:26:51.107Z,100819.88
2022-11-25T01:29:19.391Z,100819.91
2022-11-25T01:31:47.268Z,100815.56
2022-11-25T01:34:21.999Z,100816.47
2022-11-25T01:36:49.113Z,100811.19
2022-11-25T01:39:30.449Z,100807.72
2022-11-25T01:41:59.703Z,100809.50
2022-11-25T01:44:32.720Z,100806.91
2022-11-25T01:47:16.945Z,100816.63
2022-11-25T01:49:49.760Z,100814.84
2022-11-25T01:52:29.475Z,100818.38
2022-11-25T01:55:17.330Z,100816.63
2022-11-25T01:57:49.015Z,100821.84
2022-11-25T02:00:16.852Z,100816.63
2022-11-25T02:02:44.291Z,100815.72
2022-11-25T02:05:16.749Z,100818.38
2022-11-25T02:07:47.374Z,100821.88
2022-11-25T02:10:24.269Z,100823.66
2022-11-25T02:12:52.230Z,100825.38
2022-11-25T02:15:19.774Z,100822.72
2022-11-25T02:17:46.956Z,100822.72
2022-11-25T02:20:17.569Z,100822.69
2022-11-25T02:23:15.983Z,100818.31
2022-11-25T02:25:45.111Z,100816.47
2022-11-25T02:28:23.590Z,100809.47
2022-11-25T02:30:51.645Z,100825.25
2022-11-25T02:33:19.690Z,100816.47
2022-11-25T02:35:59.493Z,100823.50
2022-11-25T02:38:38.531Z,100805.94
2022-11-25T02:41:33.701Z,100811.16
2022-11-25T02:44:00.864Z,100803.22
2022-11-25T02:46:28.670Z,100797.06
2022-11-25T02:49:13.229Z,100809.38
2022-11-25T02:51:43.710Z,100810.16
2022-11-25T02:54:11.889Z,100800.50
2022-11-25T02:56:40.055Z,100809.31
2022-11-25T02:59:07.630Z,100804.03
2022-11-25T03:01:35.463Z,100811.06
2022-11-25T03:04:02.650Z,100807.56
2022-11-25T03:06:30.391Z,100808.44
2022-11-25T03:08:58.145Z,100804.97
2022-11-25T03:11:44.028Z,100797.94
2022-11-25T03:14:10.962Z,100798.81
2022-11-25T03:16:37.875Z,100797.97
2022-11-25T03:19:05.506Z,100804.13
2022-11-25T03:21:32.297Z,100797.97
2022-11-25T03:23:59.045Z,100802.38
2022-11-25T03:26:26.162Z,100799.78
2022-11-25T03:28:53.178Z,100802.44
2022-11-25T03:31:20.077Z,100795.44
2022-11-25T03:33:46.862Z,100799.88
2022-11-25T03:36:13.646Z,100795.50
2022-11-25T03:38:40.523Z,100792.88
2022-11-25T03:41:07.277Z,100800.78
2022-11-25T03:43:35.468Z,100794.63
2022-11-25T03:46:02.334Z,100793.69
2022-11-25T03:48:29.207Z,100796.31
2022-11-25T03:50:56.418Z,100794.63
2022-11-25T03:53:23.177Z,100800.66
2022-11-25T03:55:50.123Z,100793.66
2022-11-25T03:58:16.961Z,100805.94
2022-11-25T04:00:43.891Z,100810.31
2022-11-25T04:03:10.787Z,100805.03
2022-11-25T04:05:37.633Z,100791.81
2022-11-25T04:08:04.624Z,100787.41
2022-11-25T04:10:31.425Z,100790.91
2022-11-25T04:12:58.208Z,100794.41
2022-11-25T04:15:24.963Z,100793.53
2022-11-25T04:17:51.754Z,100783.84
2022-11-25T04:20:18.650Z,100797.88
2022-11-25T04:22:45.519Z,100788.25
2022-11-25T04:25:12.340Z,100790.88
2022-11-25T04:27:39.181Z,100785.63
2022-11-25T04:30:07.891Z,100782.97
2022-11-25T04:32:37.157Z,100775.97
2022-11-25T04:35:04.576Z,100788.28
2022-11-25T04:37:31.347Z,100796.22
2022-11-25T04:39:58.112Z,100802.34
2022-11-25T04:42:34.546Z,100800.63
2022-11-25T04:45:22.421Z,100802.41
2022-11-25T04:47:50.288Z,100799.81
2022-11-25T04:50:20.848Z,100795.50
2022-11-25T04:52:47.612Z,100793.72
2022-11-25T04:55:14.381Z,100799.03
2022-11-25T04:57:41.308Z,100802.59
2022-11-25T05:00:09.480Z,100791.19
2022-11-25T05:02:36.370Z,100799.13
2022-11-25T05:05:03.379Z,100791.25
2022-11-25T05:07:30.433Z,100794.75
2022-11-25T05:09:57.611Z,100800.97
2022-11-25T05:12:35.158Z,100790.47
2022-11-25T05:15:02.076Z,100786.94
2022-11-25T05:17:31.336Z,100793.97
2022-11-25T05:19:58.516Z,100784.38
2022-11-25T05:22:29.713Z,100785.25
2022-11-25T05:24:56.662Z,100786.16
2022-11-25T05:27:24.700Z,100779.16
2022-11-25T05:29:55.697Z,100791.47
2022-11-25T05:32:23.672Z,100779.19
2022-11-25T05:34:50.476Z,100770.44
2022-11-25T05:37:21.281Z,100773.06
2022-11-25T05:39:51.365Z,100776.59
2022-11-25T05:42:18.436Z,100771.41
2022-11-25T05:44:45.175Z,100768.75
2022-11-25T05:47:11.914Z,100767.88
2022-11-25T05:49:38.682Z,100771.44
2022-11-25T05:52:05.565Z,100771.47
2022-11-25T05:54:32.303Z,100772.31
2022-11-25T05:56:59.101Z,100787.28
2022-11-25T05:59:25.887Z,100777.63
2022-11-25T06:01:55.905Z,100782.94
2022-11-25T06:04:22.743Z,100782.00
2022-11-25T06:06:49.545Z,100778.50
2022-11-25T06:09:16.305Z,100768.88
2022-11-25T06:11:43.067Z,100764.47
2022-11-25T06:14:10.085Z,100773.28
2022-11-25T06:16:36.907Z,100779.44
2022-11-25T06:19:06.552Z,100768.94
2022-11-25T06:21:33.406Z,100769.78
2022-11-25T06:24:00.241Z,100782.09
2022-11-25T06:26:27.021Z,100790.91
2022-11-25T06:28:55.501Z,100796.16
2022-11-25T06:31:25.310Z,100785.63
2022-11-25T06:33:53.442Z,100782.13
2022-11-25T06:36:21.856Z,100777.75
2022-11-25T06:38:54.183Z,100786.56
2022-11-25T06:41:23.901Z,100788.34
2022-11-25T06:43:50.721Z,100789.28
2022-11-25T06:46:24.407Z,100791.94
2022-11-25T06:48:53.364Z,100796.38
2022-11-25T06:51:20.406Z,100795.59
2022-11-25T06:53:47.258Z,100794.78
2022-11-25T06:56:23.910Z,100796.63
2022-11-25T06:58:51.626Z,100803.72
2022-11-25T07:01:25.275Z,100812.59
2022-11-25T07:03:55.353Z,100813.50
2022-11-25T07:06:22.749Z,100810.94
2022-11-25T07:08:50.095Z,100819.78
2022-11-25T07:11:25.945Z,100824.25
2022-11-25T07:13:55.734Z,100831.34
2022-11-25T07:16:22.642Z,100833.13
2022-11-25T07:18:50.146Z,100835.81
2022-11-25T07:21:20.357Z,100849.03
2022-11-25T07:23:47.581Z,100844.63
2022-11-25T07:26:21.702Z,100839.34
2022-11-25T07:28:49.524Z,100835.78
2022-11-25T07:31:33.753Z,100838.41
2022-11-25T07:34:03.476Z,100839.22
2022-11-25T07:36:31.763Z,100840.13
2022-11-25T07:39:01.816Z,100828.66
2022-11-25T07:41:29.799Z,100841.91
2022-11-25T07:44:00.323Z,100848.09
2022-11-25T07:46:34.012Z,100846.34
2022-11-25T07:49:05.538Z,100850.75
2022-11-25T07:51:42.059Z,100860.44
2022-11-25T07:54:12.376Z,100855.16
2022-11-25T07:56:41.851Z,100854.34
2022-11-25T07:59:16.244Z,100865.81
2022-11-25T08:01:44.033Z,100865.81
2022-11-25T08:04:19.486Z,100868.53
2022-11-25T08:06:49.486Z,100872.97
2022-11-25T08:09:19.958Z,100872.13
2022-11-25T08:11:47.738Z,100874.78
2022-11-25T08:14:15.715Z,100870.41
2022-11-25T08:16:43.231Z,100873.09
2022-11-25T08:19:15.291Z,100877.53
2022-11-25T08:21:42.426Z,100880.19
2022-11-25T08:24:16.498Z,100891.69
2022-11-25T08:26:43.327Z,100881.19
2022-11-25T08:29:15.387Z,100881.22
2022-11-25T08:31:43.063Z,100886.50
2022-11-25T08:34:19.009Z,100881.28
2022-11-25T08:36:48.636Z,100882.16
2022-11-25T08:39:44.406Z,100896.28
2022-11-25T08:42:04.731Z,100897.16
2022-11-25T08:44:31.529Z,100887.53
2022-11-25T08:46:58.441Z,100891.03
2022-11-25T08:49:26.865Z,100889.34
2022-11-25T08:51:53.652Z,100893.78
2022-11-25T08:54:20.477Z,100885.84
2022-11-25T08:56:47.280Z,100889.38
2022-11-25T08:59:14.067Z,100892.94
2022-11-25T09:01:40.878Z,100898.22
2022-11-25T09:04:07.765Z,100889.41
2022-11-25T09:06:34.521Z,100897.41
2022-11-25T09:09:01.770Z,100900.09
2022-11-25T09:11:29.222Z,100903.59
2022-11-25T09:13:56.168Z,100909.78
2022-11-25T09:16:24.358Z,100903.66
2022-11-25T09:18:55.846Z,100909.00
2022-11-25T09:21:25.328Z,100916.06
2022-11-25T09:23:53.967Z,100919.66
2022-11-25T09:26:30.305Z,100924.06
2022-11-25T09:28:58.188Z,100926.75
2022-11-25T09:31:25.131Z,100922.41
2022-11-25T09:33:52.063Z,100925.03
2022-11-25T09:36:20.545Z,100928.59
2022-11-25T09:38:47.754Z,100926.88
2022-11-25T09:41:52.234Z,100930.41
2022-11-25T09:45:08.157Z,100928.66
2022-11-25T09:48:01.398Z,100926.88
2022-11-25T09:50:52.406Z,100928.66
2022-11-25T09:53:57.428Z,100934.91
2022-11-25T09:56:39.701Z,100934.91
2022-11-25T09:59:22.225Z,100933.19
2022-11-25T10:02:11.448Z,100935.88
2022-11-25T10:04:47.801Z,100936.75
2022-11-25T10:07:22.860Z,100942.97
2022-11-25T10:09:49.647Z,100939.44
2022-11-25T10:12:31.133Z,100935.94
2022-11-25T10:15:05.056Z,100935.94
2022-11-25T10:17:55.224Z,100943.88
2022-11-25T10:20:36.996Z,100943.88
2022-11-25T10:23:29.703Z,100949.19
2022-11-25T10:26:03.411Z,100947.41
2022-11-25T10:28:34.239Z,100936.84
2022-11-25T10:31:19.641Z,100945.66
2022-11-25T10:33:53.067Z,100950.06
2022-11-25T10:36:40.412Z,100954.47
2022-11-25T10:39:15.559Z,100950.06
2022-11-25T10:42:12.617Z,100944.78
2022-11-25T10:44:41.581Z,100946.53
2022-11-25T10:47:26.970Z,100956.28
2022-11-25T10:50:27.893Z,100959.78
2022-11-25T10:53:12.093Z,100951.81
2022-11-25T10:55:39.326Z,100955.38
2022-11-25T10:58:30.361Z,100948.31
2022-11-25T11:01:25.483Z,100957.16
2022-11-25T11:04:14.894Z,100964.22
2022-11-25T11:06:44.856Z,100961.59
2022-11-25T11:09:40.812Z,100964.25
2022-11-25T11:12:25.967Z,100959.88
2022-11-25T11:15:15.326Z,100970.47
2022-11-25T11:17:42.071Z,100964.31
2022-11-25T11:20:08.693Z,100967.88
2022-11-25T11:22:36.964Z,100967.88
2022-11-25T11:25:27.633Z,100967.88
2022-11-25T11:27:55.188Z,100961.72
2022-11-25T11:30:26.140Z,100967.88
2022-11-25T11:33:29.987Z,100961.69
2022-11-25T11:36:12.974Z,100977.59
2022-11-25T11:39:14.880Z,100982.03
2022-11-25T11:42:28.691Z,100978.47
2022-11-25T11:45:32.771Z,100976.72
2022-11-25T11:48:21.188Z,100979.34
2022-11-25T11:51:20.324Z,100971.38
2022-11-25T11:54:18.207Z,100974.91
2022-11-25T11:56:55.598Z,100981.97
2022-11-25T11:59:31.468Z,100976.72
2022-11-25T12:02:31.961Z,100978.50
2022-11-25T12:05:10.880Z,100978.50
2022-11-25T12:08:05.048Z,100979.38
2022-11-25T12:10:58.243Z,100987.34
2022-11-25T12:13:46.933Z,100988.22
2022-11-25T12:16:30.523Z,100990.88
2022-11-25T12:19:39.808Z,100983.84
2022-11-25T12:22:11.433Z,100990.03
2022-11-25T12:25:02.014Z,100982.97
2022-11-25T12:27:38.724Z,100990.06
2022-11-25T12:30:10.776Z,100993.63
2022-11-25T12:33:03.745Z,100988.31
2022-11-25T12:35:59.883Z,100991.88
2022-11-25T12:38:38.661Z,100993.66
2022-11-25T12:41:30.744Z,100986.56
2022-11-25T12:44:30.622Z,100991.00
2022-11-25T12:46:58.788Z,100992.78
2022-11-25T12:49:48.153Z,100994.59
2022-11-25T12:53:12.549Z,101001.69
2022-11-25T12:55:40.946Z,101003.44
2022-11-25T12:58:22.622Z,101014.03
2022-11-25T13:01:32.135Z,101017.59
2022-11-25T13:04:35.769Z,101022.91
2022-11-25T13:07:26.149Z,101020.28
2022-11-25T13:10:29.371Z,101023.78
2022-11-25T13:13:20.257Z,101026.47
2022-11-25T13:15:53.125Z,101038.84
2022-11-25T13:18:27.366Z,101023.84
2022-11-25T13:20:55.955Z,101026.53
2022-11-25T13:23:26.911Z,101025.66
2022-11-25T13:26:37.060Z,101031.88
2022-11-25T13:29:26.909Z,101038.94
2022-11-25T13:32:03.159Z,101038.97
2022-11-25T13:34:35.141Z,101041.63
2022-11-25T13:37:36.876Z,101050.47
2022-11-25T13:40:20.089Z,101050.47
2022-11-25T13:42:46.973Z,101055.75
2022-11-25T13:45:44.784Z,101053.97
2022-11-25T13:48:20.944Z,101060.16
2022-11-25T13:51:10.770Z,101064.59
2022-11-25T13:53:37.871Z,101060.16
2022-11-25T13:56:30.968Z,101061.94
2022-11-25T13:59:16.935Z,101066.34
2022-11-25T14:01:46.760Z,101079.59
2022-11-25T14:04:15.696Z,101074.28
2022-11-25T14:07:00.809Z,101077.84
2022-11-25T14:10:10.256Z,101076.06
2022-11-25T14:13:20.238Z,101079.63
2022-11-25T14:16:02.316Z,101076.06
2022-11-25T14:22:00.300Z,101084.94
2022-11-25T14:24:41.456Z,101089.34
2022-11-25T14:27:26.497Z,101089.38
2022-11-25T14:29:59.364Z,101093.78
2022-11-25T14:32:53.121Z,101095.53
2022-11-25T14:35:32.976Z,101092.00
2022-11-25T14:38:05.179Z,101099.97
2022-11-25T14:40:42.080Z,101099.97
2022-11-25T14:43:20.949Z,101106.16
2022-11-25T14:45:48.006Z,101111.44
2022-11-25T14:48:25.898Z,101111.47
2022-11-25T14:51:01.518Z,101121.19
2022-11-25T14:53:30.101Z,101123.81
2022-11-25T14:56:00.262Z,101120.28
2022-11-25T14:58:27.475Z,101123.81
2022-11-25T15:01:18.086Z,101130.91
2022-11-25T15:03:48.294Z,101136.19
2022-11-25T15:06:16.513Z,101133.53
2022-11-25T15:08:46.551Z,101137.06
2022-11-25T15:11:20.131Z,101132.66
2022-11-25T15:14:03.031Z,101139.72
2022-11-25T15:16:40.158Z,101137.97
2022-11-25T15:19:26.040Z,101148.56
2022-11-25T15:24:55.637Z,101151.19
2022-11-25T15:27:28.695Z,101155.63
2022-11-25T15:29:57.157Z,101159.13
2022-11-25T15:32:32.339Z,101167.94
2022-11-25T15:35:01.683Z,101170.56
2022-11-25T15:37:29.026Z,101172.34
2022-11-25T15:40:30.777Z,101170.56
2022-11-25T15:43:00.432Z,101166.13
2022-11-25T15:45:42.511Z,101167.88
2022-11-25T15:48:27.222Z,101173.16
2022-11-25T15:51:03.781Z,101183.72
2022-11-25T15:53:36.767Z,101176.59
2022-11-25T15:56:06.730Z,101188.06
2022-11-25T15:58:33.618Z,101190.66
2022-11-25T16:01:21.247Z,101181.78
2022-11-25T16:03:49.471Z,101189.66
2022-11-25T16:06:26.865Z,101194.88
2022-11-25T16:09:02.612Z,101194.81
2022-11-25T16:11:33.500Z,101201.75
2022-11-25T16:14:30.551Z,101210.50
2022-11-25T16:17:12.073Z,101209.59
2022-11-25T16:19:44.666Z,101218.31
2022-11-25T16:22:18.762Z,101223.56
2022-11-25T16:25:01.922Z,101222.66
2022-11-25T16:27:29.887Z,101228.75
2022-11-25T16:30:06.004Z,101232.28
2022-11-25T16:32:34.144Z,101230.53
2022-11-25T16:35:27.408Z,101233.19
2022-11-25T16:37:58.177Z,101227.03
2022-11-25T16:40:27.215Z,101241.16
2022-11-25T16:42:54.051Z,101240.28
2022-11-25T16:45:23.937Z,101244.69
2022-11-25T16:47:50.863Z,101244.69
2022-11-25T16:50:19.691Z,101243.81
2022-11-25T16:52:46.613Z,101248.19
2022-11-25T16:55:13.673Z,101252.59
2022-11-25T16:57:42.910Z,101259.63
2022-11-25T17:00:16.814Z,101256.13
2022-11-25T17:02:44.777Z,101253.44
2022-11-25T17:05:19.189Z,101258.75
2022-11-25T17:07:46.157Z,101262.16
2022-11-25T17:10:13.244Z,101266.53
2022-11-25T17:12:42.360Z,101270.06
2022-11-25T17:15:17.148Z,101269.13
2022-11-25T17:17:47.500Z,101279.69
2022-11-25T17:20:17.805Z,101276.97
2022-11-25T17:22:44.617Z,101297.22
2022-11-25T17:25:14.638Z,101292.78
2022-11-25T17:27:42.275Z,101291.84
2022-11-25T17:30:23.749Z,101301.53
2022-11-25T17:33:02.218Z,101300.69
2022-11-25T17:35:29.077Z,101299.78
2022-11-25T17:37:58.505Z,101307.78
2022-11-25T17:40:25.403Z,101301.63
2022-11-25T17:42:52.488Z,101313.13
2022-11-25T17:45:21.567Z,101314.94
2022-11-25T17:47:48.527Z,101316.75
2022-11-25T17:50:22.788Z,101326.56
2022-11-25T17:52:50.180Z,101330.06
2022-11-25T17:55:19.483Z,101338.03
2022-11-25T17:57:47.932Z,101334.53
2022-11-25T18:00:19.670Z,101345.16
2022-11-25T18:02:47.321Z,101344.31
2022-11-25T18:05:20.283Z,101335.56
2022-11-25T18:07:47.497Z,101345.28
2022-11-25T18:10:17.431Z,101341.81
2022-11-25T18:12:46.593Z,101352.44
2022-11-25T18:15:20.699Z,101353.34
2022-11-25T18:17:48.735Z,101350.75
2022-11-25T18:20:26.277Z,101354.31
2022-11-25T18:22:53.662Z,101366.69
2022-11-25T18:25:24.915Z,101369.34
2022-11-25T18:27:56.782Z,101373.78
2022-11-25T18:30:28.196Z,101378.25
2022-11-25T18:32:56.219Z,101381.78
2022-11-25T18:35:31.091Z,101392.41
2022-11-25T18:38:01.043Z,101396.84
2022-11-25T18:40:29.221Z,101404.84
2022-11-25T18:43:00.358Z,101400.44
2022-11-25T18:45:40.268Z,101404.91
2022-11-25T18:48:14.800Z,101404.91
2022-11-25T18:50:43.212Z,101415.53
2022-11-25T18:53:09.981Z,101408.47
2022-11-25T18:55:37.284Z,101415.63
2022-11-25T18:58:19.022Z,101412.09
2022-11-25T19:00:50.994Z,101418.28
2022-11-25T19:03:25.851Z,101419.22
2022-11-25T19:05:54.303Z,101427.16
2022-11-25T19:08:21.500Z,101432.47
2022-11-25T19:10:48.976Z,101441.28
2022-11-25T19:13:34.704Z,101439.56
2022-11-25T19:16:08.643Z,101436.91
2022-11-25T19:18:35.644Z,101439.53
2022-11-25T19:21:02.438Z,101448.34
2022-11-25T19:23:29.252Z,101449.22
2022-11-25T19:26:04.807Z,101445.63
2022-11-25T19:28:32.059Z,101460.56
2022-11-25T19:31:04.312Z,101458.78
2022-11-25T19:33:37.216Z,101459.63
2022-11-25T19:36:05.998Z,101466.69
2022-11-25T19:38:34.692Z,101464.84
2022-11-25T19:41:01.621Z,101476.34
2022-11-25T19:43:28.439Z,101477.19
2022-11-25T19:45:57.308Z,101479.00
2022-11-25T19:48:26.970Z,101480.75
2022-11-25T19:50:59.384Z,101485.19
2022-11-25T19:53:33.043Z,101490.47
2022-11-25T19:56:03.933Z,101484.31
2022-11-25T19:58:31.249Z,101497.56
2022-11-25T20:01:02.845Z,101496.66
2022-11-25T20:03:31.084Z,101501.06
2022-11-25T20:05:58.492Z,101508.16
2022-11-25T20:08:28.912Z,101510.81
2022-11-25T20:10:57.703Z,101512.59
2022-11-25T20:13:25.871Z,101523.22
2022-11-25T20:15:55.209Z,101519.69
2022-11-25T20:18:26.017Z,101529.50
2022-11-25T20:21:02.407Z,101525.09
2022-11-25T20:23:44.355Z,101541.03
2022-11-25T20:26:35.407Z,101546.34
2022-11-25T20:29:03.269Z,101553.41
2022-11-25T20:31:30.677Z,101556.13
2022-11-25T20:33:57.959Z,101565.00
2022-11-25T20:36:31.624Z,101566.81
2022-11-25T20:38:59.707Z,101564.16
2022-11-25T20:41:28.088Z,101567.75
2022-11-25T20:43:56.466Z,101577.47
2022-11-25T20:46:28.924Z,101575.75
2022-11-25T20:48:59.386Z,101583.72
2022-11-25T20:51:26.704Z,101583.72
2022-11-25T20:53:57.701Z,101589.94
2022-11-25T20:56:27.334Z,101600.56
2022-11-25T20:58:54.196Z,101597.91
2022-11-25T21:01:21.068Z,101605.88
2022-11-25T21:03:49.523Z,101606.78
2022-11-25T21:06:25.678Z,101606.81
2022-11-25T21:08:54.036Z,101609.47
2022-11-25T21:11:22.650Z,101613.00
2022-11-25T21:13:50.426Z,101618.31
2022-11-25T21:16:17.523Z,101618.34
2022-11-25T21:18:44.590Z,101618.38
2022-11-25T21:21:31.593Z,101617.47
2022-11-25T21:24:10.368Z,101624.53
2022-11-25T21:26:37.155Z,101628.97
2022-11-25T21:29:03.962Z,101641.31
2022-11-25T21:31:30.815Z,101639.59
2022-11-25T21:33:59.167Z,101646.69
2022-11-25T21:36:29.955Z,101644.03
2022-11-25T21:39:09.030Z,101656.44
2022-11-25T21:41:48.655Z,101648.50
2022-11-25T21:44:39.889Z,101656.44
2022-11-25T21:47:26.340Z,101652.91
2022-11-25T21:49:53.617Z,101650.25
2022-11-25T21:52:20.525Z,101655.56
2022-11-25T21:54:47.478Z,101652.03
2022-11-25T21:57:22.132Z,101655.56
2022-11-25T21:59:49.277Z,101663.50
2022-11-25T22:02:19.608Z,101663.50
2022-11-25T22:04:46.616Z,101672.34
2022-11-25T22:07:13.762Z,101671.47
2022-11-25T22:09:41.232Z,101683.84
2022-11-25T22:12:27.125Z,101683.84
2022-11-25T22:14:54.301Z,101682.06
2022-11-25T22:17:21.121Z,101690.91
2022-11-25T22:19:47.959Z,101691.81
2022-11-25T22:22:16.452Z,101692.66
2022-11-25T22:24:43.636Z,101692.66
2022-11-25T22:27:26.104Z,101696.22
2022-11-25T22:29:53.132Z,101700.56
2022-11-25T22:32:20.266Z,101699.66
2022-11-25T22:34:47.317Z,101704.94
2022-11-25T22:37:22.986Z,101708.47
2022-11-25T22:39:50.333Z,101709.28
2022-11-25T22:42:30.003Z,101710.16
2022-11-25T22:44:58.869Z,101711.84
2022-11-25T22:47:31.990Z,101720.63
2022-11-25T22:50:02.286Z,101724.00
2022-11-25T22:52:35.408Z,101729.25
2022-11-25T22:55:14.514Z,101737.06
2022-11-25T22:57:41.388Z,101743.16
2022-11-25T23:00:12.141Z,101739.50
2022-11-25T23:02:38.978Z,101743.81
2022-11-25T23:05:16.469Z,101746.34
2022-11-25T23:07:43.641Z,101751.56
2022-11-25T23:10:25.384Z,101748.81
2022-11-25T23:12:52.512Z,101748.66
2022-11-25T23:15:22.604Z,101751.22
2022-11-25T23:17:59.261Z,101760.00
2022-11-25T23:20:36.463Z,101759.03
2022-11-25T23:23:14.681Z,101756.25
2022-11-25T23:25:42.777Z,101760.56
2022-11-25T23:28:09.840Z,101764.91
2022-11-25T23:30:37.043Z,101765.69
2022-11-25T23:33:09.297Z,101780.63
2022-11-25T23:35:38.359Z,101777.91
2022-11-25T23:38:16.857Z,101780.50
2022-11-25T23:40:44.028Z,101780.41
2022-11-25T23:43:15.742Z,101778.56
2022-11-25T23:45:55.148Z,101792.63
2022-11-25T23:48:28.305Z,101796.06
2022-11-25T23:50:57.092Z,101804.84
2022-11-25T23:53:32.026Z,101795.97
2022-11-25T23:55:58.928Z,101806.50
2022-11-25T23:58:25.892Z,101804.72
